Time;durP1;ratioP1;P1;durP2;ratioP2;P2;SDS_P1;SDS_P2;PMS_P1;PMS_P2;Temp;Humidity;BMP_temperature;BMP_pressure;BME280_temperature;BME280_humidity;BME280_pressure;Samples;Min_cycle;Max_cycle;Signal;HPM_P1;HPM_P2
2022/10/28 00:02:01;;;;;;;14.93;5.72;;;;;;;7.36;100.00;96432.50;5060546;28;20049;-76
2022/10/28 00:04:26;;;;;;;19.73;5.60;;;;;;;7.31;100.00;96429.75;5062621;28;20039;-75
2022/10/28 00:06:52;;;;;;;18.83;6.03;;;;;;;7.28;100.00;96419.72;5061506;28;20041;-75
2022/10/28 00:09:17;;;;;;;15.88;5.80;;;;;;;7.34;100.00;96425.91;5068739;28;20123;-75
2022/10/28 00:11:43;;;;;;;12.95;5.53;;;;;;;7.22;100.00;96420.66;5055819;28;20426;-75
2022/10/28 00:14:09;;;;;;;13.48;4.90;;;;;;;7.24;100.00;96423.81;5064142;28;20051;-74
2022/10/28 00:16:36;;;;;;;19.13;5.72;;;;;;;7.19;100.00;96426.34;5060788;28;20049;-75
2022/10/28 00:19:04;;;;;;;13.52;4.90;;;;;;;7.24;100.00;96426.44;5056337;28;20116;-75
2022/10/28 00:21:32;;;;;;;14.20;4.95;;;;;;;7.22;100.00;96420.66;5070424;28;20448;-75
2022/10/28 00:23:58;;;;;;;11.90;4.75;;;;;;;7.17;100.00;96423.13;5069771;28;20101;-74
2022/10/28 00:26:32;;;;;;;13.57;4.97;;;;;;;7.18;100.00;96414.25;5060119;28;20055;-75
2022/10/28 00:29:03;;;;;;;9.20;4.90;;;;;;;7.20;100.00;96423.50;5061882;28;20048;-75
2022/10/28 00:31:30;;;;;;;15.27;5.55;;;;;;;7.15;100.00;96427.81;5068957;28;20032;-75
2022/10/28 00:33:58;;;;;;;13.45;5.35;;;;;;;7.13;100.00;96427.25;5066959;28;20044;-73
2022/10/28 00:36:26;;;;;;;9.95;4.90;;;;;;;7.13;100.00;96424.63;5059131;28;20045;-75
2022/10/28 00:38:53;;;;;;;16.85;4.93;;;;;;;7.06;100.00;96422.09;5056399;28;20052;-76
2022/10/28 00:41:34;;;;;;;11.63;4.82;;;;;;;6.94;100.00;96419.47;5068858;28;20047;-75
2022/10/28 00:44:21;;;;;;;17.85;5.07;;;;;;;7.02;100.00;96419.13;5071507;28;20501;-75
2022/10/28 00:46:49;;;;;;;12.48;4.95;;;;;;;6.98;100.00;96420.56;5063542;28;20051;-75
2022/10/28 00:49:19;;;;;;;16.80;4.90;;;;;;;6.97;100.00;96408.53;5069460;28;20060;-76
2022/10/28 00:51:48;;;;;;;12.82;5.18;;;;;;;6.98;100.00;96410.13;5062882;28;20047;-76
2022/10/28 00:54:15;;;;;;;10.55;4.50;;;;;;;6.94;100.00;96409.00;5069576;28;20068;-76
2022/10/28 00:56:44;;;;;;;12.30;5.57;;;;;;;6.86;100.00;96404.06;5070630;28;20047;-77
2022/10/28 00:59:30;;;;;;;17.35;4.65;;;;;;;6.85;100.00;96402.47;5062159;28;20506;-75
2022/10/28 01:01:56;;;;;;;14.85;5.18;;;;;;;6.86;100.00;96397.00;5060112;28;20400;-76
2022/10/28 01:04:21;;;;;;;11.85;4.28;;;;;;;6.90;100.00;96402.59;5064381;28;20063;-75
2022/10/28 01:06:48;;;;;;;12.57;4.68;;;;;;;6.86;100.00;96393.59;5069748;28;20179;-77
2022/10/28 01:09:13;;;;;;;12.32;4.78;;;;;;;6.84;100.00;96393.00;5062700;28;20640;-77
2022/10/28 01:11:49;;;;;;;15.27;4.70;;;;;;;6.76;100.00;96394.91;5057434;28;20060;-77
2022/10/28 01:14:21;;;;;;;15.20;4.85;;;;;;;6.78;100.00;96396.53;5062627;28;20045;-76
2022/10/28 01:17:17;;;;;;;15.75;4.88;;;;;;;6.78;100.00;96394.72;5066169;28;20044;-76
2022/10/28 01:20:17;;;;;;;11.05;4.22;;;;;;;6.72;100.00;96388.56;5069770;28;20048;-77
2022/10/28 01:22:46;;;;;;;16.63;4.32;;;;;;;6.76;100.00;96391.53;5067599;28;20052;-77
2022/10/28 01:25:33;;;;;;;12.27;4.05;;;;;;;6.74;100.00;96383.91;5066173;28;20033;-76
2022/10/28 01:28:36;;;;;;;9.25;4.45;;;;;;;6.70;100.00;96381.97;5070039;28;20044;-75
2022/10/28 01:31:12;;;;;;;16.85;4.88;;;;;;;6.61;100.00;96378.84;5069826;28;20041;-76
2022/10/28 01:34:01;;;;;;;13.52;4.70;;;;;;;6.62;100.00;96380.44;5060101;28;20045;-76
2022/10/28 01:36:36;;;;;;;24.80;4.68;;;;;;;6.63;100.00;96387.25;5065789;28;20110;-76
2022/10/28 01:39:20;;;;;;;8.93;4.32;;;;;;;6.58;100.00;96384.53;5066417;28;20123;-76
2022/10/28 01:41:52;;;;;;;13.90;4.93;;;;;;;6.58;100.00;96387.16;5070157;28;20259;-76
2022/10/28 01:44:38;;;;;;;16.45;5.15;;;;;;;6.61;100.00;96394.56;5066889;28;20281;-76
2022/10/28 01:47:13;;;;;;;12.48;4.80;;;;;;;6.65;100.00;96390.47;5065056;28;20498;-77
2022/10/28 01:50:00;;;;;;;12.05;4.32;;;;;;;6.62;100.00;96385.66;5067108;28;20360;-77
2022/10/28 01:52:30;;;;;;;11.23;4.63;;;;;;;6.61;100.00;96384.09;5069503;28;20037;-75
2022/10/28 01:55:24;;;;;;;15.95;4.28;;;;;;;6.64;100.00;96386.25;5069189;28;20044;-77
2022/10/28 01:57:53;;;;;;;19.50;4.18;;;;;;;6.54;100.00;96378.16;5070680;28;20041;-77
2022/10/28 02:00:19;;;;;;;7.35;3.72;;;;;;;6.54;100.00;96383.38;5063912;28;20055;-77
2022/10/28 02:02:48;;;;;;;18.30;4.20;;;;;;;6.53;100.00;96382.56;5067495;28;20044;-76
2022/10/28 02:05:38;;;;;;;15.88;3.90;;;;;;;6.59;100.00;96386.13;5071086;28;20036;-77
2022/10/28 02:08:18;;;;;;;13.65;4.65;;;;;;;6.54;100.00;96384.16;5070124;28;20041;-75
2022/10/28 02:11:13;;;;;;;9.48;4.07;;;;;;;6.56;100.00;96391.78;5065064;28;20090;-75
2022/10/28 02:13:50;;;;;;;13.35;4.43;;;;;;;6.45;100.00;96379.47;5046774;28;20080;-74
2022/10/28 02:16:26;;;;;;;14.93;4.25;;;;;;;6.47;100.00;96382.66;5054839;28;20041;-75
2022/10/28 02:19:11;;;;;;;11.77;4.13;;;;;;;6.49;100.00;96385.84;5068904;28;20067;-75
2022/10/28 02:21:52;;;;;;;7.93;3.95;;;;;;;6.51;100.00;96378.59;5069795;28;20041;-76
2022/10/28 02:24:30;;;;;;;13.68;3.92;;;;;;;6.47;100.00;96378.22;5062689;28;20402;-76
2022/10/28 02:27:36;;;;;;;16.02;4.30;;;;;;;6.49;100.00;96384.03;5066788;28;20409;-75
2022/10/28 02:30:37;;;;;;;8.07;3.80;;;;;;;6.41;100.00;96379.91;5060512;28;20123;-75
2022/10/28 02:33:06;;;;;;;11.88;3.75;;;;;;;6.47;100.00;96382.66;5059849;28;20053;-75
2022/10/28 02:35:40;;;;;;;10.38;4.30;;;;;;;6.44;100.00;96378.66;5065382;28;20028;-75
2022/10/28 02:38:16;;;;;;;10.75;4.03;;;;;;;6.41;100.00;96379.91;5063042;28;20513;-75
2022/10/28 02:40:46;;;;;;;7.70;3.90;;;;;;;6.43;100.00;96376.28;5065628;28;20689;-75
2022/10/28 02:43:14;;;;;;;11.13;4.07;;;;;;;6.40;100.00;96377.50;5067565;28;20040;-74
2022/10/28 02:45:42;;;;;;;9.93;4.07;;;;;;;6.35;100.00;96375.56;5065537;28;20048;-74
2022/10/28 02:48:26;;;;;;;7.38;3.63;;;;;;;6.36;100.00;96377.16;5053874;28;20040;-74
2022/10/28 02:51:00;;;;;;;7.82;3.60;;;;;;;6.38;100.00;96374.34;5066880;28;20192;-75
2022/10/28 02:54:21;;;;;;;7.70;3.63;;;;;;;6.40;100.00;96373.06;5068600;28;20082;-75
2022/10/28 02:56:59;;;;;;;10.43;4.13;;;;;;;6.41;100.00;96374.69;5017745;28;20045;-75
2022/10/28 02:59:25;;;;;;;12.10;3.97;;;;;;;6.38;100.00;96374.34;5058418;28;20072;-75
2022/10/28 03:01:51;;;;;;;13.85;4.28;;;;;;;6.30;100.00;96367.56;5069554;28;20052;-75
2022/10/28 03:04:16;;;;;;;10.98;4.20;;;;;;;6.32;100.00;96376.00;5067160;28;20517;-75
2022/10/28 03:06:42;;;;;;;7.10;3.33;;;;;;;6.28;100.00;96364.41;5068589;28;20066;-75
2022/10/28 03:09:07;;;;;;;8.50;3.90;;;;;;;6.29;100.00;96365.97;5069117;28;20098;-75
2022/10/28 03:11:33;;;;;;;8.38;3.75;;;;;;;6.27;100.00;96362.78;5068646;28;20048;-74
2022/10/28 03:13:59;;;;;;;9.07;3.70;;;;;;;6.27;100.00;96362.78;5067146;28;20061;-75
2022/10/28 03:16:27;;;;;;;11.65;3.63;;;;;;;6.33;100.00;96361.91;5066915;28;20055;-74
2022/10/28 03:18:53;;;;;;;14.38;3.90;;;;;;;6.31;100.00;96358.72;5068094;28;20406;-75
2022/10/28 03:21:19;;;;;;;9.93;3.78;;;;;;;6.28;100.00;96369.63;5063778;28;20066;-75
2022/10/28 03:23:45;;;;;;;10.65;3.70;;;;;;;6.30;100.00;96366.78;5060651;28;20039;-74
2022/10/28 03:26:10;;;;;;;9.20;3.70;;;;;;;6.22;100.00;96363.47;5059440;28;20113;-74
2022/10/28 03:28:36;;;;;;;9.30;3.83;;;;;;;6.26;100.00;96371.66;5068274;28;20640;-74
2022/10/28 03:31:01;;;;;;;9.48;3.78;;;;;;;6.26;100.00;96366.41;5068117;28;20067;-74
2022/10/28 03:33:27;;;;;;;10.38;3.63;;;;;;;6.26;100.00;96376.88;5066896;28;20116;-74
2022/10/28 03:35:52;;;;;;;7.18;3.50;;;;;;;6.25;100.00;96364.84;5059070;28;20633;-74
2022/10/28 03:38:18;;;;;;;14.48;3.95;;;;;;;6.20;100.00;96375.16;5062899;28;20060;-74
2022/10/28 03:40:46;;;;;;;9.57;3.88;;;;;;;6.19;100.00;96370.94;5065486;28;20036;-75
2022/10/28 03:43:12;;;;;;;10.77;3.60;;;;;;;6.19;100.00;96368.31;5060111;28;20098;-75
2022/10/28 03:45:37;;;;;;;10.73;3.55;;;;;;;6.20;100.00;96372.53;5067421;28;20053;-75
2022/10/28 03:48:03;;;;;;;12.77;4.07;;;;;;;6.20;100.00;96367.31;5067042;28;20048;-74
2022/10/28 03:50:28;;;;;;;10.32;3.58;;;;;;;6.17;100.00;96368.53;5069566;28;20040;-75
2022/10/28 03:52:54;;;;;;;9.15;3.75;;;;;;;6.16;100.00;96366.16;5070407;28;20040;-75
2022/10/28 03:55:19;;;;;;;9.25;3.88;;;;;;;6.20;100.00;96367.31;5067145;28;20047;-75
2022/10/28 03:57:45;;;;;;;8.00;3.97;;;;;;;6.11;100.00;96355.56;5071876;28;20048;-74
2022/10/28 04:00:11;;;;;;;16.67;3.92;;;;;;;6.14;100.00;96368.19;5062990;28;20037;-74
2022/10/28 04:02:37;;;;;;;9.10;3.72;;;;;;;6.13;100.00;96367.38;5069461;28;20045;-75
2022/10/28 04:05:02;;;;;;;9.50;3.58;;;;;;;6.11;100.00;96363.41;5065543;28;20060;-75
2022/10/28 04:07:28;;;;;;;11.07;3.67;;;;;;;6.10;100.00;96367.03;5060241;28;20048;-75
2022/10/28 04:09:54;;;;;;;11.20;3.72;;;;;;;6.07;100.00;96369.06;5069077;28;20075;-75
2022/10/28 04:12:19;;;;;;;9.15;4.22;;;;;;;6.04;100.00;96374.72;5067189;28;20040;-75
2022/10/28 04:14:45;;;;;;;15.13;3.97;;;;;;;6.04;100.00;96364.28;5064284;28;20036;-75
2022/10/28 04:17:10;;;;;;;16.90;4.72;;;;;;;6.05;100.00;96370.31;5070126;28;20044;-75
2022/10/28 04:19:36;;;;;;;8.10;3.55;;;;;;;6.00;100.00;96365.72;5064422;28;20406;-74
2022/10/28 04:22:01;;;;;;;10.40;3.50;;;;;;;6.01;100.00;96372.56;5066037;28;20056;-75
2022/10/28 04:24:27;;;;;;;7.47;3.53;;;;;;;6.00;100.00;96368.34;5071469;28;20047;-75
2022/10/28 04:26:52;;;;;;;9.70;3.75;;;;;;;6.06;100.00;96364.88;5065814;28;20047;-75
2022/10/28 04:29:18;;;;;;;7.75;3.65;;;;;;;5.98;100.00;96364.38;5068654;28;20037;-74
2022/10/28 04:31:44;;;;;;;13.15;4.70;;;;;;;5.95;100.00;96351.69;5068962;28;20045;-75
2022/10/28 04:34:09;;;;;;;12.25;4.13;;;;;;;5.94;100.00;96363.97;5070772;28;20037;-75
2022/10/28 04:36:35;;;;;;;11.30;3.85;;;;;;;5.93;100.00;96361.56;5071168;28;20048;-75
2022/10/28 04:39:00;;;;;;;7.65;3.83;;;;;;;5.93;100.00;96367.56;5067036;28;20044;-75
2022/10/28 04:41:25;;;;;;;10.15;3.90;;;;;;;5.94;100.00;96368.41;5065238;28;20044;-75
2022/10/28 04:43:51;;;;;;;7.05;3.40;;;;;;;5.98;100.00;96369.59;5070604;28;20516;-75
2022/10/28 04:46:16;;;;;;;8.25;3.78;;;;;;;5.97;100.00;96374.00;5062048;28;20040;-73
2022/10/28 04:48:42;;;;;;;12.77;3.67;;;;;;;5.92;100.00;96367.81;5071548;28;20044;-75
2022/10/28 04:51:07;;;;;;;10.30;3.67;;;;;;;5.87;100.00;96368.47;5070942;28;20073;-75
2022/10/28 04:53:33;;;;;;;9.88;3.72;;;;;;;5.88;100.00;96360.41;5071230;28;20045;-75
2022/10/28 04:55:59;;;;;;;10.98;4.20;;;;;;;5.93;100.00;96366.78;5069856;28;20076;-75
2022/10/28 04:58:25;;;;;;;7.45;3.70;;;;;;;5.87;100.00;96368.47;5065616;28;20083;-75
2022/10/28 05:00:51;;;;;;;11.82;3.60;;;;;;;5.87;100.00;96368.47;5059558;28;20048;-75
2022/10/28 05:03:16;;;;;;;14.38;4.95;;;;;;;5.85;100.00;96370.50;5070438;28;20041;-75
2022/10/28 05:05:42;;;;;;;12.07;4.40;;;;;;;5.82;100.00;96360.47;5070875;28;20040;-75
2022/10/28 05:08:07;;;;;;;7.55;3.67;;;;;;;5.85;100.00;96370.50;5059622;28;20036;-75
2022/10/28 05:10:33;;;;;;;15.25;3.80;;;;;;;5.85;100.00;96360.06;5066775;28;20056;-75
2022/10/28 05:12:59;;;;;;;9.82;4.15;;;;;;;5.82;100.00;96360.47;5071281;28;20410;-74
2022/10/28 05:15:25;;;;;;;13.88;3.97;;;;;;;5.83;100.00;96356.84;5065229;28;20033;-76
2022/10/28 05:17:51;;;;;;;18.00;4.15;;;;;;;5.80;100.00;96358.06;5068117;28;20077;-76
2022/10/28 05:20:19;;;;;;;12.95;4.45;;;;;;;5.82;100.00;96355.25;5068778;28;20068;-76
2022/10/28 05:22:54;;;;;;;11.25;4.05;;;;;;;5.80;100.00;96362.50;5070849;28;20098;-76
2022/10/28 05:25:21;;;;;;;16.10;4.25;;;;;;;5.79;100.00;96355.69;5066953;28;20037;-76
2022/10/28 05:27:46;;;;;;;10.68;4.07;;;;;;;5.76;100.00;96356.13;5069873;28;20533;-76
2022/10/28 05:30:13;;;;;;;9.18;4.45;;;;;;;5.78;100.00;96354.09;5068722;28;20040;-76
2022/10/28 05:32:38;;;;;;;12.65;3.80;;;;;;;5.82;100.00;96352.63;5066232;28;20045;-76
2022/10/28 05:35:05;;;;;;;9.18;4.05;;;;;;;5.77;100.00;96347.28;5063077;28;20596;-76
2022/10/28 05:37:30;;;;;;;12.05;3.92;;;;;;;5.81;100.00;96343.22;5069683;28;20522;-76
2022/10/28 05:39:56;;;;;;;10.18;3.78;;;;;;;5.82;100.00;96350.00;5060607;28;20041;-76
2022/10/28 05:42:21;;;;;;;14.50;4.28;;;;;;;5.79;100.00;96347.84;5064321;28;20040;-76
2022/10/28 05:44:46;;;;;;;13.32;3.70;;;;;;;5.84;100.00;96353.22;5069769;28;20040;-75
2022/10/28 05:47:12;;;;;;;14.75;4.47;;;;;;;5.85;100.00;96354.84;5065310;28;20048;-74
2022/10/28 05:49:37;;;;;;;12.20;4.20;;;;;;;5.80;100.00;96352.06;5069295;28;20494;-73
2022/10/28 05:52:03;;;;;;;11.20;4.05;;;;;;;5.85;100.00;96358.22;5069422;28;20448;-74
2022/10/28 05:54:29;;;;;;;8.80;3.90;;;;;;;5.81;100.00;96361.50;5068544;28;20117;-75
2022/10/28 05:56:54;;;;;;;25.85;4.07;;;;;;;5.79;100.00;96350.47;5070114;28;20410;-74
2022/10/28 05:59:20;;;;;;;9.82;4.30;;;;;;;5.83;100.00;96351.63;5059925;28;20049;-74
2022/10/28 06:01:46;;;;;;;10.45;4.13;;;;;;;5.84;100.00;96354.00;5063441;28;20036;-71
2022/10/28 06:04:11;;;;;;;14.40;4.20;;;;;;;5.87;100.00;96355.41;5055067;28;20033;-74
2022/10/28 06:06:37;;;;;;;9.20;4.10;;;;;;;5.87;100.00;96358.00;5063961;28;20048;-73
2022/10/28 06:09:03;;;;;;;10.75;5.05;;;;;;;5.88;100.00;96370.06;5068687;28;20051;-72
2022/10/28 06:11:28;;;;;;;13.77;4.22;;;;;;;5.95;100.00;96360.34;5067077;28;20048;-74
2022/10/28 06:13:54;;;;;;;23.17;4.35;;;;;;;6.04;100.00;96364.28;5062467;28;20395;-74
2022/10/28 06:16:19;;;;;;;9.52;4.07;;;;;;;6.05;100.00;96362.47;5067226;28;20040;-74
2022/10/28 06:18:45;;;;;;;10.32;4.22;;;;;;;6.07;100.00;96366.44;5066829;28;20040;-74
2022/10/28 06:21:10;;;;;;;12.27;4.65;;;;;;;6.16;100.00;96371.38;5065724;28;20036;-73
2022/10/28 06:23:36;;;;;;;13.85;4.85;;;;;;;6.24;100.00;96373.69;5068393;28;20515;-73
2022/10/28 06:26:03;;;;;;;12.73;4.03;;;;;;;6.34;100.00;96379.19;5069319;28;20037;-73
2022/10/28 06:28:29;;;;;;;16.60;4.75;;;;;;;6.34;100.00;96373.97;5068112;28;20498;-73
2022/10/28 06:31:01;;;;;;;14.90;4.90;;;;;;;6.43;100.00;96382.31;5066434;28;20116;-74
2022/10/28 06:33:27;;;;;;;15.05;5.07;;;;;;;6.52;100.00;96375.75;5061929;28;20037;-72
2022/10/28 06:35:56;;;;;;;22.25;5.28;;;;;;;6.51;100.00;96383.81;5055539;28;20040;-74
2022/10/28 06:38:23;;;;;;;22.73;5.28;;;;;;;6.57;100.00;96378.50;5064207;28;20037;-73
2022/10/28 06:40:48;;;;;;;14.43;5.32;;;;;;;6.66;100.00;96381.59;5068412;28;20111;-73
2022/10/28 06:43:15;;;;;;;21.58;5.20;;;;;;;6.70;100.00;96377.50;5065385;28;20128;-72
2022/10/28 06:45:40;;;;;;;18.00;4.78;;;;;;;6.75;100.00;96380.25;5066766;28;20119;-72
2022/10/28 06:48:06;;;;;;;16.48;5.35;;;;;;;6.80;100.00;96376.19;5060279;28;20379;-73
2022/10/28 06:50:33;;;;;;;25.08;5.55;;;;;;;6.82;100.00;96381.97;5064909;28;20407;-72
2022/10/28 06:53:00;;;;;;;15.25;5.15;;;;;;;6.91;100.00;96380.63;5067655;28;20037;-72
2022/10/28 06:55:26;;;;;;;18.95;5.18;;;;;;;6.97;100.00;96381.56;5067664;28;20047;-72
2022/10/28 06:57:52;;;;;;;14.20;5.60;;;;;;;7.05;100.00;96383.84;5062813;28;20178;-73
2022/10/28 07:00:18;;;;;;;12.02;4.65;;;;;;;7.11;100.00;96383.75;5058485;28;20044;-73
2022/10/28 07:02:51;;;;;;;15.00;5.50;;;;;;;7.17;100.00;96386.47;5065684;28;20033;-72
2022/10/28 07:05:17;;;;;;;15.65;5.45;;;;;;;7.25;100.00;96386.94;5064967;28;20113;-73
2022/10/28 07:07:42;;;;;;;13.63;4.60;;;;;;;7.33;100.00;96390.28;5068298;28;20498;-72
2022/10/28 07:10:08;;;;;;;19.55;4.70;;;;;;;7.36;100.00;96390.63;5068705;28;20039;-72
2022/10/28 07:12:33;;;;;;;13.68;4.90;;;;;;;7.49;100.00;96399.28;5066480;28;20067;-72
2022/10/28 07:14:59;;;;;;;16.65;4.85;;;;;;;7.56;100.00;96399.97;5066463;28;20062;-73
2022/10/28 07:17:25;;;;;;;12.63;5.20;;;;;;;7.68;100.00;96407.81;5068222;28;20530;-72
2022/10/28 07:19:50;;;;;;;13.98;4.90;;;;;;;7.77;100.00;96402.00;5067972;28;20045;-73
2022/10/28 07:22:16;;;;;;;13.73;5.18;;;;;;;7.85;100.00;96397.44;5068252;28;20564;-72
2022/10/28 07:24:41;;;;;;;14.75;4.57;;;;;;;7.95;100.00;96400.28;5064496;28;20041;-72
2022/10/28 07:27:08;;;;;;;11.32;4.40;;;;;;;8.04;100.00;96412.00;5071410;28;20596;-73
2022/10/28 07:29:34;;;;;;;18.77;4.78;;;;;;;8.09;100.00;96414.72;5068481;28;20079;-73
2022/10/28 07:31:59;;;;;;;11.05;4.22;;;;;;;8.13;100.00;96415.88;5071124;28;20406;-72
2022/10/28 07:34:25;;;;;;;14.15;4.78;;;;;;;8.25;100.00;96420.28;5060989;28;20044;-72
2022/10/28 07:36:52;;;;;;;10.57;4.32;;;;;;;8.36;100.00;96423.91;5069444;28;20049;-73
2022/10/28 07:39:18;;;;;;;14.07;4.80;;;;;;;8.52;100.00;96427.63;5067015;28;20514;-72
2022/10/28 07:41:44;;;;;;;13.77;5.13;;;;;;;8.59;100.00;96407.31;5063060;28;20051;-73
2022/10/28 07:44:10;;;;;;;19.27;5.60;;;;;;;8.73;100.00;96419.13;5063601;28;20041;-73
2022/10/28 07:46:35;;;;;;;13.13;5.00;;;;;;;8.83;100.00;96421.94;5055189;28;20052;-70
2022/10/28 07:49:01;;;;;;;14.80;4.97;;;;;;;8.90;100.00;96413.91;5065628;28;20063;-70
2022/10/28 07:51:26;;;;;;;20.05;4.57;;;;;;;8.98;100.00;96410.13;5070867;28;20517;-70
2022/10/28 07:53:53;;;;;;;23.13;5.18;;;;;;;9.08;100.00;96415.53;5064151;28;20048;-71
2022/10/28 07:56:19;;;;;;;17.05;4.00;;;;;;;9.20;100.00;96418.09;5070322;28;20354;-71
2022/10/28 07:58:44;;;;;;;12.00;4.00;;;;;;;9.38;100.00;96413.63;5069251;28;20045;-71
2022/10/28 08:01:12;;;;;;;14.10;4.38;;;;;;;9.50;100.00;96407.28;5069491;28;20527;-71
2022/10/28 08:03:38;;;;;;;10.98;4.47;;;;;;;9.67;100.00;96417.00;5070304;28;20082;-72
2022/10/28 08:06:09;;;;;;;15.82;4.07;;;;;;;9.86;100.00;96420.91;5068273;28;20410;-71
2022/10/28 08:08:36;;;;;;;17.30;4.57;;;;;;;10.03;100.00;96415.63;5063402;28;20094;-72
2022/10/28 08:11:09;;;;;;;10.32;3.83;;;;;;;10.30;100.00;96414.09;5059504;28;20090;-75
2022/10/28 08:13:35;;;;;;;12.38;3.60;;;;;;;10.61;100.00;96425.03;5058217;28;20086;-71
2022/10/28 08:16:00;;;;;;;13.60;4.32;;;;;;;10.94;100.00;96423.25;5063937;28;20049;-72
2022/10/28 08:18:26;;;;;;;16.83;3.50;;;;;;;11.17;100.00;96416.88;5070113;28;20668;-71
2022/10/28 08:20:51;;;;;;;18.30;3.15;;;;;;;11.53;100.00;96425.06;5071785;28;20528;-71
2022/10/28 08:23:17;;;;;;;12.88;3.13;;;;;;;11.95;100.00;96421.69;5070585;28;20075;-72
2022/10/28 08:25:50;;;;;;;12.02;3.35;;;;;;;12.25;100.00;96415.75;5068166;28;20094;-71
2022/10/28 08:28:16;;;;;;;12.20;2.87;;;;;;;12.42;100.00;96409.50;5063198;28;20040;-71
2022/10/28 08:30:41;;;;;;;22.08;3.30;;;;;;;12.83;100.00;96414.91;5067611;28;20512;-72
2022/10/28 08:33:07;;;;;;;8.38;3.35;;;;;;;12.94;100.00;96405.94;5061170;28;20410;-71
2022/10/28 08:35:34;;;;;;;9.50;2.45;;;;;;;13.45;100.00;96409.72;5062848;28;20499;-72
2022/10/28 08:38:00;;;;;;;8.55;2.65;;;;;;;13.72;100.00;96416.53;5068258;28;20048;-73
2022/10/28 08:40:45;;;;;;;13.10;2.97;;;;;;;13.98;100.00;96412.78;5060766;28;20045;-73
2022/10/28 08:43:29;;;;;;;10.48;2.50;;;;;;;14.23;100.00;96408.47;5060853;28;20051;-72
2022/10/28 08:46:07;;;;;;;8.57;2.85;;;;;;;14.35;100.00;96398.38;5059869;28;20036;-73
2022/10/28 08:48:34;;;;;;;15.43;3.47;;;;;;;14.51;100.00;96403.59;5063536;28;20036;-74
2022/10/28 08:51:20;;;;;;;12.05;2.65;;;;;;;14.63;100.00;96401.44;5063570;28;20045;-70
2022/10/28 08:54:31;;;;;;;12.68;2.50;;;;;;;14.79;100.00;96409.31;5058372;28;20079;-74
2022/10/28 08:57:00;;;;;;;7.47;2.60;;;;;;;14.94;100.00;96400.47;5052984;28;20049;-73
2022/10/28 08:59:37;;;;;;;13.02;2.55;;;;;;;15.11;100.00;96394.81;5060142;28;20625;-73
2022/10/28 09:02:23;;;;;;;8.30;2.63;;;;;;;15.22;100.00;96413.00;5055241;28;20174;-72
2022/10/28 09:04:58;;;;;;;8.10;2.63;;;;;;;15.45;100.00;96409.94;5062062;28;20048;-73
2022/10/28 09:07:23;;;;;;;;;;;;;;;15.49;100.00;96405.66;5058237;28;20041;-73
2022/10/28 09:09:52;;;;;;;8.77;2.80;;;;;;;15.64;100.00;96397.53;5062586;28;19928;-74
2022/10/28 09:12:52;;;;;;;9.15;3.00;;;;;;;15.86;100.00;96406.91;5060373;28;20032;-73
2022/10/28 09:15:33;;;;;;;9.02;3.70;;;;;;;16.15;100.00;96412.19;5060958;28;20036;-73
2022/10/28 09:18:17;;;;;;;9.48;2.85;;;;;;;16.24;100.00;96415.03;5063643;28;20451;-73
2022/10/28 09:20:59;;;;;;;12.27;3.00;;;;;;;16.32;100.00;96411.75;5082211;28;20047;-72
2022/10/28 09:23:41;;;;;;;15.80;3.72;;;;;;;16.24;100.00;96409.72;5067115;28;20064;-72
2022/10/28 09:26:07;;;;;;;14.45;3.25;;;;;;;16.40;100.00;96413.75;5066445;28;20051;-73
2022/10/28 09:29:02;;;;;;;14.77;3.45;;;;;;;16.68;100.00;96413.97;5066965;28;20053;-74
2022/10/28 09:31:36;;;;;;;13.23;4.18;;;;;;;16.84;100.00;96413.72;5062133;28;20040;-75
2022/10/28 09:34:09;;;;;;;9.73;3.15;;;;;;;16.82;100.00;96408.69;5060998;28;20035;-74
2022/10/28 09:36:46;;;;;;;7.50;2.55;;;;;;;17.24;100.00;96399.09;5060273;28;20115;-72
2022/10/28 09:39:17;;;;;;;7.82;2.50;;;;;;;17.30;100.00;96399.81;5055190;28;20490;-73
2022/10/28 09:41:44;;;;;;;10.73;2.90;;;;;;;17.39;100.00;96400.72;5058636;28;20045;-73
2022/10/28 09:44:38;;;;;;;8.70;3.03;;;;;;;17.63;100.00;96399.81;5065790;28;20163;-72
2022/10/28 09:47:14;;;;;;;13.55;2.85;;;;;;;18.47;100.00;96401.44;5063322;28;20048;-73
2022/10/28 09:49:42;;;;;;;10.98;2.80;;;;;;;20.49;100.00;96395.50;5067576;28;20044;-72
2022/10/28 09:52:07;;;;;;;17.45;2.83;;;;;;;21.61;100.00;96401.22;5070502;28;20037;-72
2022/10/28 09:54:36;;;;;;;12.27;3.63;;;;;;;22.21;100.00;96395.97;5060516;28;20430;-73
2022/10/28 09:57:03;;;;;;;10.27;2.70;;;;;;;22.74;79.42;96396.50;5061760;28;20049;-72
2022/10/28 09:59:29;;;;;;;12.75;2.65;;;;;;;23.16;87.79;96395.72;5063726;28;20606;-73
2022/10/28 10:01:54;;;;;;;6.93;2.80;;;;;;;23.39;74.09;96392.66;5062231;28;20098;-74
2022/10/28 10:04:23;;;;;;;8.68;2.40;;;;;;;23.51;83.07;96395.41;5058280;28;20037;-72
2022/10/28 10:07:13;;;;;;;7.40;2.55;;;;;;;24.08;79.40;96398.44;5061411;28;20048;-74
2022/10/28 10:09:39;;;;;;;10.65;2.80;;;;;;;24.35;63.51;96389.72;5064908;28;20830;-74
2022/10/28 10:12:09;;;;;;;11.45;2.70;;;;;;;24.83;65.00;96398.06;5059786;28;20082;-73
2022/10/28 10:14:55;;;;;;;7.63;2.63;;;;;;;24.25;57.15;96390.16;5067054;28;20052;-72
2022/10/28 10:17:38;;;;;;;9.52;2.70;;;;;;;24.86;53.39;96383.94;5067897;28;20074;-73
2022/10/28 10:20:20;;;;;;;8.82;2.72;;;;;;;25.08;54.64;96392.63;5070403;28;20042;-73
2022/10/28 10:22:47;;;;;;;19.92;3.63;;;;;;;25.10;52.52;96389.56;5074830;28;20044;-73
2022/10/28 10:25:16;;;;;;;6.18;2.40;;;;;;;25.15;48.58;96386.66;5067794;28;20063;-73
2022/10/28 10:27:42;;;;;;;7.93;2.65;;;;;;;25.96;49.69;96391.88;5068152;28;20054;-72
2022/10/28 10:30:20;;;;;;;6.65;2.40;;;;;;;25.60;49.83;96390.94;5072129;28;20847;-73
2022/10/28 10:32:47;;;;;;;12.95;3.13;;;;;;;25.00;48.89;96391.66;5064795;28;20454;-72
2022/10/28 10:35:12;;;;;;;14.20;2.80;;;;;;;24.38;56.17;96383.66;5076453;28;20175;-73
2022/10/28 10:37:43;;;;;;;6.82;2.67;;;;;;;24.84;48.77;96380.00;5076742;28;20092;-72
2022/10/28 10:40:24;;;;;;;10.57;2.92;;;;;;;24.81;49.02;96381.50;5067766;28;20078;-73
2022/10/28 10:42:50;;;;;;;7.43;3.05;;;;;;;24.49;62.68;96380.50;5060892;28;20044;-72
2022/10/28 10:45:22;;;;;;;9.77;3.10;;;;;;;25.83;45.00;96374.19;5071008;28;20608;-74
2022/10/28 10:47:47;;;;;;;8.98;2.58;;;;;;;25.08;56.63;96377.25;5071950;28;20498;-74
2022/10/28 10:50:31;;;;;;;9.68;2.40;;;;;;;25.46;42.75;96369.81;5072624;28;20048;-74
2022/10/28 10:52:59;;;;;;;9.07;2.17;;;;;;;24.75;41.43;96379.38;5076406;28;20120;-74
2022/10/28 10:55:40;;;;;;;6.32;2.30;;;;;;;24.31;44.56;96367.31;5068796;28;20037;-72
2022/10/28 10:58:19;;;;;;;5.28;2.10;;;;;;;24.66;43.50;96364.13;5066597;28;20044;-74
2022/10/28 11:00:47;;;;;;;5.72;1.98;;;;;;;25.25;42.52;96359.22;5056780;28;20040;-73
2022/10/28 11:03:22;;;;;;;7.80;2.60;;;;;;;24.83;42.51;96354.22;5066197;28;20060;-71
2022/10/28 11:05:51;;;;;;;6.90;1.95;;;;;;;24.81;45.54;96361.84;5067135;28;20062;-74
2022/10/28 11:08:37;;;;;;;9.40;2.13;;;;;;;25.48;46.37;96350.63;5064845;28;20108;-73
2022/10/28 11:11:11;;;;;;;6.53;2.03;;;;;;;24.77;49.58;96350.19;5064342;28;20041;-73
2022/10/28 11:13:37;;;;;;;;;;;;;;;23.89;55.68;96351.38;5060668;28;20040;-71
2022/10/28 11:16:06;;;;;;;4.47;2.10;;;;;;;26.27;54.24;96341.75;5055863;28;19939;-72
2022/10/28 11:18:43;;;;;;;6.30;2.10;;;;;;;25.53;48.34;96353.03;5054694;28;20064;-73
2022/10/28 11:21:26;;;;;;;6.72;2.53;;;;;;;25.62;46.30;96344.81;5075372;28;20047;-72
2022/10/28 11:24:18;;;;;;;3.65;1.85;;;;;;;24.86;48.05;96342.78;5073586;28;20045;-72
2022/10/28 11:26:58;;;;;;;4.10;2.00;;;;;;;25.52;48.24;96329.94;5070498;28;20041;-69
2022/10/28 11:29:24;;;;;;;6.53;1.80;;;;;;;26.33;42.84;96329.53;5050223;28;20490;-71
2022/10/28 11:31:49;;;;;;;9.45;2.28;;;;;;;26.43;43.30;96329.03;5060890;28;20062;-72
2022/10/28 11:34:28;;;;;;;4.15;2.20;;;;;;;25.68;53.45;96330.72;5061539;28;20036;-74
2022/10/28 11:37:12;;;;;;;6.35;1.80;;;;;;;26.30;46.45;96318.69;5059643;28;20041;-71
2022/10/28 11:40:15;;;;;;;5.13;2.08;;;;;;;26.19;46.35;96307.66;5064051;28;20426;-73
2022/10/28 11:42:52;;;;;;;7.53;2.20;;;;;;;26.02;48.42;96315.00;5060193;28;20108;-72
2022/10/28 11:45:29;;;;;;;10.20;2.40;;;;;;;27.93;44.88;96317.91;5064473;28;20044;-71